createdAt,value
2022-10-10T00:00:14.699Z,101455.00
2022-10-10T00:03:01.709Z,101452.25
2022-10-10T00:05:42.808Z,101457.00
2022-10-10T00:08:29.664Z,101449.47
2022-10-10T00:11:10.958Z,101452.53
2022-10-10T00:13:57.662Z,101450.59
2022-10-10T00:16:44.685Z,101451.41
2022-10-10T00:19:24.797Z,101455.81
2022-10-10T00:22:11.686Z,101451.91
2022-10-10T00:24:51.816Z,101456.16
2022-10-10T00:27:38.631Z,101457.91
2022-10-10T00:30:18.769Z,101458.75
2022-10-10T00:33:06.621Z,101457.50
2022-10-10T00:35:47.764Z,101475.50
2022-10-10T00:38:34.621Z,101455.47
2022-10-10T00:41:14.742Z,101458.84
2022-10-10T00:44:27.629Z,101471.25
2022-10-10T00:47:07.749Z,101465.53
2022-10-10T00:49:54.683Z,101466.03
2022-10-10T00:52:34.741Z,101468.47
2022-10-10T00:55:21.667Z,101471.25
2022-10-10T00:58:01.762Z,101473.75
2022-10-10T01:00:48.660Z,101472.38
2022-10-10T01:03:35.609Z,101470.16
2022-10-10T01:06:16.274Z,101472.91
2022-10-10T01:09:02.598Z,101484.28
2022-10-10T01:11:55.224Z,101476.69
2022-10-10T01:14:52.609Z,101489.72
2022-10-10T01:17:51.050Z,101486.13
2022-10-10T01:20:49.549Z,101481.41
2022-10-10T01:24:04.565Z,101491.69
2022-10-10T01:27:05.665Z,101492.34
2022-10-10T01:29:58.635Z,101491.50
2022-10-10T01:33:02.578Z,101494.47
2022-10-10T01:36:03.059Z,101493.44
2022-10-10T01:39:02.565Z,101517.38
2022-10-10T01:42:02.588Z,101502.03
2022-10-10T01:44:49.529Z,101495.97
2022-10-10T01:47:36.574Z,101506.06
2022-10-10T01:50:22.661Z,101510.19
2022-10-10T01:53:41.561Z,101507.72
2022-10-10T01:56:37.587Z,101509.47
2022-10-10T01:59:49.529Z,101508.16
2022-10-10T02:02:45.608Z,101502.44
2022-10-10T02:06:19.499Z,101503.88
2022-10-10T02:09:13.533Z,101510.38
2022-10-10T02:12:02.523Z,101510.25
2022-10-10T02:14:51.619Z,101519.75
2022-10-10T02:17:43.527Z,101535.44
2022-10-10T02:20:28.303Z,101536.88
2022-10-10T02:23:18.528Z,101541.81
2022-10-10T02:26:09.490Z,101542.00
2022-10-10T02:29:14.589Z,101536.63
2022-10-10T02:32:20.494Z,101551.63
2022-10-10T02:35:04.726Z,101548.34
2022-10-10T02:37:53.490Z,101553.19
2022-10-10T02:40:37.645Z,101554.47
2022-10-10T02:43:25.468Z,101560.81
2022-10-10T02:46:08.626Z,101555.91
2022-10-10T02:48:55.514Z,101563.75
2022-10-10T02:51:42.466Z,101575.44
2022-10-10T02:54:29.468Z,101568.28
2022-10-10T02:57:16.488Z,101589.44
2022-10-10T02:59:57.256Z,101593.16
2022-10-10T03:02:44.467Z,101589.88
2022-10-10T03:05:24.866Z,101591.44
2022-10-10T03:26:19.270Z,101621.03
2022-10-10T03:29:01.157Z,101626.97
2022-10-10T03:31:48.274Z,101626.53
2022-10-10T03:34:35.412Z,101624.19
2022-10-10T03:37:16.236Z,101629.00
2022-10-10T03:39:56.619Z,101637.50
2022-10-10T03:42:43.270Z,101633.09
2022-10-10T03:45:30.332Z,101636.88
2022-10-10T03:48:11.271Z,101639.84
2022-10-10T03:50:51.648Z,101638.94
2022-10-10T03:53:38.249Z,101638.09
2022-10-10T03:56:25.236Z,101641.84
2022-10-10T03:59:07.235Z,101640.09
2022-10-10T04:01:54.267Z,101638.63
2022-10-10T04:04:34.720Z,101638.63
2022-10-10T04:07:21.222Z,101641.22
2022-10-10T04:10:01.912Z,101650.94
2022-10-10T04:12:48.439Z,101639.47
2022-10-10T04:15:28.833Z,101642.72
2022-10-10T04:18:15.212Z,101645.59
2022-10-10T04:20:55.670Z,101642.00
2022-10-10T04:23:42.220Z,101657.59
2022-10-10T04:26:36.217Z,101654.41
2022-10-10T04:29:23.181Z,101654.81
2022-10-10T04:32:03.338Z,101662.19
2022-10-10T04:34:50.180Z,101650.91
2022-10-10T04:37:37.220Z,101660.91
2022-10-10T04:40:17.693Z,101656.09
2022-10-10T04:43:04.156Z,101660.44
2022-10-10T04:45:44.607Z,101653.56
2022-10-10T04:48:31.184Z,101667.88
2022-10-10T04:51:11.666Z,101664.34
2022-10-10T04:53:58.146Z,101672.78
2022-10-10T04:56:38.836Z,101681.16
2022-10-10T04:59:25.161Z,101690.00
2022-10-10T05:02:05.704Z,101699.50
2022-10-10T05:04:52.128Z,101686.63
2022-10-10T05:07:39.295Z,101690.31
2022-10-10T05:10:19.146Z,101675.34
2022-10-10T05:13:06.407Z,101686.41
2022-10-10T05:15:47.125Z,101688.22
2022-10-10T05:18:37.386Z,101684.28
2022-10-10T05:21:18.138Z,101691.50
2022-10-10T05:24:12.157Z,101691.63
2022-10-10T05:26:52.556Z,101705.06
2022-10-10T05:29:39.157Z,101706.88
2022-10-10T05:32:19.517Z,101716.19
2022-10-10T05:35:06.115Z,101710.78
2022-10-10T05:37:53.130Z,101715.06
2022-10-10T05:40:40.148Z,101714.97
2022-10-10T05:43:27.239Z,101726.63
2022-10-10T05:46:07.285Z,101731.34
2022-10-10T05:48:47.481Z,101724.19
2022-10-10T05:51:35.093Z,101727.88
2022-10-10T05:54:15.558Z,101731.69
2022-10-10T05:57:02.119Z,101732.91
2022-10-10T05:59:42.464Z,101745.31
2022-10-10T06:02:29.122Z,101744.78
2022-10-10T06:05:16.078Z,101742.41
2022-10-10T06:08:12.466Z,101752.28
2022-10-10T06:10:53.094Z,101757.16
2022-10-10T06:13:40.084Z,101759.56
2022-10-10T06:16:20.163Z,101761.75
2022-10-10T06:19:08.590Z,101761.16
2022-10-10T06:21:50.191Z,101764.78
2022-10-10T06:24:37.074Z,101760.78
2022-10-10T06:27:17.183Z,101758.53
2022-10-10T06:30:04.102Z,101760.66
2022-10-10T06:32:55.810Z,101757.13
2022-10-10T06:35:41.838Z,101753.13
2022-10-10T06:38:23.082Z,101765.25
2022-10-10T06:41:14.046Z,101769.94
2022-10-10T06:43:54.489Z,101773.50
2022-10-10T06:46:44.069Z,101768.91
2022-10-10T06:49:24.571Z,101771.91
2022-10-10T06:52:11.052Z,101773.03
2022-10-10T06:54:51.395Z,101766.94
2022-10-10T06:57:38.062Z,101773.81
2022-10-10T07:00:18.672Z,101780.47
2022-10-10T07:03:05.055Z,101789.78
2022-10-10T07:05:48.961Z,101780.75
2022-10-10T07:08:37.005Z,101784.31
2022-10-10T07:11:24.012Z,101790.94
2022-10-10T07:14:11.011Z,101779.16
2022-10-10T07:16:51.403Z,101785.25
2022-10-10T07:19:37.980Z,101782.72
2022-10-10T07:22:25.123Z,101790.91
2022-10-10T07:25:18.980Z,101791.78
2022-10-10T07:28:13.039Z,101781.16
2022-10-10T07:30:59.624Z,101776.25
2022-10-10T07:33:51.979Z,101785.81
2022-10-10T07:36:32.714Z,101778.81
2022-10-10T07:39:18.949Z,101773.94
2022-10-10T07:42:06.055Z,101781.00
2022-10-10T07:44:53.009Z,101776.44
2022-10-10T07:47:33.389Z,101775.06
2022-10-10T07:50:20.976Z,101774.03
2022-10-10T07:53:01.464Z,101781.50
2022-10-10T07:55:48.005Z,101779.66
2022-10-10T07:58:35.098Z,101776.53
2022-10-10T08:01:18.059Z,101774.44
2022-10-10T08:04:05.105Z,101771.38
2022-10-10T08:06:44.947Z,101773.38
2022-10-10T08:09:32.061Z,101769.00
2022-10-10T08:12:11.943Z,101773.50
2022-10-10T08:14:59.047Z,101777.34
2022-10-10T08:17:45.949Z,101760.63
2022-10-10T08:20:26.357Z,101761.59
2022-10-10T08:23:12.979Z,101767.72
2022-10-10T08:25:59.967Z,101776.81
2022-10-10T08:28:41.196Z,101773.72
2022-10-10T08:31:28.916Z,101770.88
2022-10-10T08:34:09.543Z,101766.88
2022-10-10T08:36:55.936Z,101770.94
2022-10-10T08:39:42.950Z,101761.59
2022-10-10T08:42:43.710Z,101765.91
2022-10-10T08:45:30.942Z,101772.19
2022-10-10T08:48:14.262Z,101764.38
2022-10-10T08:51:08.934Z,101760.34
2022-10-10T08:53:55.048Z,101763.38
2022-10-10T08:56:42.109Z,101759.66
2022-10-10T08:59:34.939Z,101763.13
2022-10-10T09:02:58.015Z,101759.38
2022-10-10T09:05:53.906Z,101771.28
2022-10-10T09:08:48.464Z,101768.28
2022-10-10T09:11:56.894Z,101768.56
2022-10-10T09:14:49.366Z,101774.34
2022-10-10T09:17:41.869Z,101774.63
2022-10-10T09:20:27.013Z,101770.84
2022-10-10T09:23:22.865Z,101771.69
2022-10-10T09:26:17.901Z,101783.19
2022-10-10T09:29:16.872Z,101780.91
2022-10-10T09:32:18.875Z,101771.34
2022-10-10T09:35:13.908Z,101780.78
2022-10-10T09:38:09.395Z,101772.59
2022-10-10T09:41:05.846Z,101766.81
2022-10-10T09:43:52.974Z,101765.09
2022-10-10T09:46:32.879Z,101762.63
2022-10-10T09:49:22.938Z,101762.72
2022-10-10T09:52:02.884Z,101745.88
2022-10-10T09:54:50.870Z,101752.50
2022-10-10T09:57:35.977Z,101753.81
2022-10-10T10:00:25.849Z,101751.84
2022-10-10T10:03:19.870Z,101755.09
2022-10-10T10:06:01.699Z,101747.03
2022-10-10T10:08:50.877Z,101745.13
2022-10-10T10:11:34.778Z,101743.13
2022-10-10T10:14:36.845Z,101739.22
2022-10-10T10:17:28.806Z,101752.06
2022-10-10T10:20:10.813Z,101749.09
2022-10-10T10:22:58.818Z,101745.88
2022-10-10T10:25:52.830Z,101734.56
2022-10-10T10:28:40.702Z,101736.63
2022-10-10T10:31:41.405Z,101733.41
2022-10-10T10:34:50.813Z,101740.69
2022-10-10T10:37:33.011Z,101741.88
2022-10-10T10:40:56.785Z,101734.22
2022-10-10T10:43:58.978Z,101736.56
2022-10-10T10:46:57.787Z,101733.41
2022-10-10T10:50:29.785Z,101724.88
2022-10-10T10:53:21.771Z,101734.28
2022-10-10T10:56:26.808Z,101732.09
2022-10-10T10:59:39.035Z,101731.28
2022-10-10T11:02:56.108Z,101734.31
2022-10-10T11:05:56.827Z,101725.56
2022-10-10T11:08:54.888Z,101723.66
2022-10-10T11:12:05.790Z,101716.28
2022-10-10T11:15:17.942Z,101718.91
2022-10-10T11:18:14.764Z,101701.56
2022-10-10T11:21:10.789Z,101710.66
2022-10-10T11:23:58.046Z,101711.06
2022-10-10T11:26:53.776Z,101712.66
2022-10-10T11:30:07.617Z,101705.19
2022-10-10T11:33:09.736Z,101711.44
2022-10-10T11:36:03.277Z,101712.25
2022-10-10T11:38:52.767Z,101713.44
2022-10-10T11:41:46.742Z,101703.22
2022-10-10T11:44:38.746Z,101714.63
2022-10-10T11:47:34.756Z,101720.59
2022-10-10T11:50:37.833Z,101728.28
2022-10-10T11:53:35.730Z,101722.97
2022-10-10T11:56:35.853Z,101721.84
2022-10-10T11:59:54.927Z,101722.19
2022-10-10T12:02:49.714Z,101727.22
2022-10-10T12:05:37.781Z,101725.88
2022-10-10T12:08:35.748Z,101714.47
2022-10-10T12:11:26.340Z,101709.19
2022-10-10T12:14:14.690Z,101711.66
2022-10-10T12:17:02.774Z,101713.03
2022-10-10T12:19:43.156Z,101712.91
2022-10-10T12:22:39.714Z,101725.38
2022-10-10T12:25:57.907Z,101732.41
2022-10-10T12:28:44.869Z,101724.91
2022-10-10T12:31:38.802Z,101719.78
2022-10-10T12:34:48.734Z,101722.50
2022-10-10T12:37:40.690Z,101727.34
2022-10-10T12:40:20.849Z,101725.06
2022-10-10T12:43:10.656Z,101726.19
2022-10-10T12:45:59.829Z,101717.63
2022-10-10T12:48:47.677Z,101724.84
2022-10-10T12:51:29.806Z,101723.22
2022-10-10T12:54:30.706Z,101726.94
2022-10-10T12:57:24.857Z,101737.00
2022-10-10T13:00:23.658Z,101732.09
2022-10-10T13:03:07.800Z,101720.38
2022-10-10T13:05:56.627Z,101724.06
2022-10-10T13:08:39.778Z,101719.56
2022-10-10T13:11:26.640Z,101721.44
2022-10-10T13:14:14.752Z,101721.41
2022-10-10T13:17:01.673Z,101726.47
2022-10-10T13:19:47.793Z,101729.31
2022-10-10T13:22:37.647Z,101728.97
2022-10-10T13:25:24.620Z,101722.72
2022-10-10T13:28:21.821Z,101720.38
2022-10-10T13:31:03.002Z,101716.09
2022-10-10T13:33:43.338Z,101724.13
2022-10-10T13:36:42.625Z,101714.19
2022-10-10T13:39:23.982Z,101718.69
2022-10-10T13:42:12.650Z,101723.09
2022-10-10T13:45:01.606Z,101719.63
2022-10-10T13:48:03.610Z,101722.63
2022-10-10T13:50:43.959Z,101709.72
2022-10-10T13:53:42.643Z,101716.44
2022-10-10T13:56:23.253Z,101703.38
2022-10-10T13:59:15.577Z,101706.22
2022-10-10T14:02:04.401Z,101706.28
2022-10-10T14:04:58.560Z,101702.13
2022-10-10T14:07:39.025Z,101700.19
2022-10-10T14:10:30.555Z,101688.84
2022-10-10T14:13:24.589Z,101699.19
2022-10-10T14:16:17.837Z,101699.94
2022-10-10T14:19:04.614Z,101703.16
2022-10-10T14:21:44.687Z,101708.25
2022-10-10T14:24:31.568Z,101698.59
2022-10-10T14:27:36.895Z,101701.91
2022-10-10T14:30:26.573Z,101705.56
2022-10-10T14:33:21.578Z,101696.09
2022-10-10T14:36:02.648Z,101689.59
2022-10-10T14:38:49.759Z,101698.78
2022-10-10T14:41:36.555Z,101695.72
2022-10-10T14:44:23.644Z,101699.16
2022-10-10T14:47:03.521Z,101691.84
2022-10-10T14:49:50.540Z,101694.31
2022-10-10T14:52:30.649Z,101691.38
2022-10-10T14:55:18.545Z,101699.13
2022-10-10T14:58:05.520Z,101693.56
2022-10-10T15:00:46.172Z,101707.97
2022-10-10T15:03:32.588Z,101701.78
2022-10-10T15:06:12.900Z,101711.75
2022-10-10T15:08:59.491Z,101707.53
2022-10-10T15:27:29.396Z,101708.50
2022-10-10T15:30:10.978Z,101707.34
2022-10-10T15:32:57.381Z,101708.50
2022-10-10T15:36:04.005Z,101698.50
2022-10-10T15:38:46.370Z,101701.63
2022-10-10T15:41:26.785Z,101714.22
2022-10-10T15:44:13.341Z,101719.78
2022-10-10T15:47:00.316Z,101711.78
2022-10-10T15:49:47.380Z,101713.41
2022-10-10T15:52:27.803Z,101711.63
2022-10-10T15:55:14.331Z,101708.66
2022-10-10T15:58:01.299Z,101715.88
2022-10-10T16:00:47.553Z,101712.63
2022-10-10T16:03:34.365Z,101706.22
2022-10-10T16:06:22.323Z,101709.47
2022-10-10T16:09:26.696Z,101715.41
2022-10-10T16:12:09.318Z,101711.94
2022-10-10T16:14:49.831Z,101712.09
2022-10-10T16:17:36.327Z,101716.03
2022-10-10T16:20:23.476Z,101722.09
2022-10-10T16:23:03.425Z,101713.25
2022-10-10T16:25:50.285Z,101714.56
2022-10-10T16:28:30.455Z,101720.44
2022-10-10T16:31:20.289Z,101721.41
2022-10-10T16:34:02.372Z,101728.94
2022-10-10T16:36:50.307Z,101726.66
2022-10-10T16:39:37.297Z,101733.88
2022-10-10T16:42:17.701Z,101733.72
2022-10-10T16:45:04.282Z,101735.84
2022-10-10T16:47:44.643Z,101732.88
2022-10-10T16:50:31.274Z,101734.19
2022-10-10T16:53:19.265Z,101742.22
2022-10-10T16:55:59.512Z,101739.25
2022-10-10T16:58:47.234Z,101734.69
2022-10-10T17:01:36.495Z,101738.59
2022-10-10T17:04:17.991Z,101739.56
2022-10-10T17:07:04.229Z,101738.44
2022-10-10T17:09:46.087Z,101737.94
2022-10-10T17:12:33.217Z,101743.00
2022-10-10T17:15:20.257Z,101732.50
2022-10-10T17:18:00.361Z,101739.22
2022-10-10T17:20:48.253Z,101737.91
2022-10-10T17:23:35.253Z,101737.44
2022-10-10T17:26:24.255Z,101742.03
2022-10-10T17:29:13.409Z,101750.84
2022-10-10T17:32:05.588Z,101743.81
2022-10-10T17:34:46.580Z,101741.50
2022-10-10T17:37:33.187Z,101743.97
2022-10-10T17:40:20.288Z,101749.53
2022-10-10T17:43:04.587Z,101747.22
2022-10-10T17:45:51.221Z,101753.94
2022-10-10T17:48:39.529Z,101744.28
2022-10-10T17:51:29.270Z,101743.44
2022-10-10T17:54:10.171Z,101744.94
2022-10-10T17:56:57.208Z,101746.09
2022-10-10T17:59:45.294Z,101743.63
2022-10-10T18:02:25.191Z,101735.09
2022-10-10T18:05:05.971Z,101719.88
2022-10-10T18:07:53.197Z,101727.41
2022-10-10T18:10:40.168Z,101723.78
2022-10-10T18:13:20.373Z,101730.63
2022-10-10T18:16:18.181Z,101730.91
2022-10-10T18:18:58.280Z,101738.16
2022-10-10T18:21:45.198Z,101726.84
2022-10-10T18:24:28.334Z,101739.25
2022-10-10T18:27:15.163Z,101738.97
2022-10-10T18:29:57.127Z,101741.09
2022-10-10T18:32:44.169Z,101741.59
2022-10-10T18:35:34.142Z,101735.16
2022-10-10T18:38:22.324Z,101742.84
2022-10-10T18:41:22.308Z,101747.94
2022-10-10T18:44:24.242Z,101739.88
2022-10-10T18:47:16.570Z,101735.78
2022-10-10T18:50:35.304Z,101742.13
2022-10-10T18:53:27.176Z,101729.00
2022-10-10T18:56:16.695Z,101742.22
2022-10-10T18:59:16.551Z,101736.31
2022-10-10T19:02:02.972Z,101740.50
2022-10-10T19:04:55.228Z,101742.63
2022-10-10T19:07:45.249Z,101741.09
2022-10-10T19:10:50.396Z,101737.06
2022-10-10T19:13:31.329Z,101741.16
2022-10-10T19:16:24.313Z,101742.81
2022-10-10T19:19:14.913Z,101749.63
2022-10-10T19:21:56.375Z,101753.09
2022-10-10T19:24:44.161Z,101752.41
2022-10-10T19:27:31.368Z,101753.88
2022-10-10T19:30:11.177Z,101752.34
2022-10-10T19:32:51.520Z,101755.44
2022-10-10T19:35:38.148Z,101762.97
2022-10-10T19:38:25.053Z,101759.47
2022-10-10T19:41:12.051Z,101756.69
2022-10-10T19:43:59.079Z,101763.19
2022-10-10T19:46:40.243Z,101748.84
2022-10-10T19:49:27.082Z,101751.28
2022-10-10T19:52:14.088Z,101749.50
2022-10-10T19:55:01.157Z,101744.47
2022-10-10T19:57:41.093Z,101746.78
2022-10-10T20:00:21.542Z,101743.69
2022-10-10T20:03:08.028Z,101734.63
2022-10-10T20:05:48.772Z,101734.97
2022-10-10T20:08:35.050Z,101738.53
2022-10-10T20:11:17.453Z,101736.38
2022-10-10T20:14:05.052Z,101741.56
2022-10-10T20:16:52.085Z,101737.84
2022-10-10T20:19:39.006Z,101746.25
2022-10-10T20:22:26.005Z,101742.47
2022-10-10T20:25:13.019Z,101743.34
2022-10-10T20:28:07.025Z,101740.16
2022-10-10T20:30:57.060Z,101730.69
2022-10-10T20:33:44.016Z,101736.44
2022-10-10T20:36:32.147Z,101740.88
2022-10-10T20:39:16.010Z,101741.75
2022-10-10T20:41:56.418Z,101744.56
2022-10-10T20:44:42.997Z,101731.31
2022-10-10T20:47:33.092Z,101740.66
2022-10-10T20:50:20.030Z,101740.81
2022-10-10T20:53:00.594Z,101736.91
2022-10-10T20:55:46.994Z,101733.63
2022-10-10T20:58:27.595Z,101733.31
2022-10-10T21:01:19.092Z,101734.00
2022-10-10T21:03:59.823Z,101725.63
2022-10-10T21:06:46.993Z,101721.03
2022-10-10T21:09:33.969Z,101719.56
2022-10-10T21:12:14.110Z,101712.59
2022-10-10T21:15:03.020Z,101714.72
2022-10-10T21:17:43.069Z,101710.97
2022-10-10T21:20:29.965Z,101709.41
2022-10-10T21:23:10.122Z,101698.97
2022-10-10T21:25:56.941Z,101700.59
2022-10-10T21:28:44.151Z,101704.72
2022-10-10T21:31:36.959Z,101697.66
2022-10-10T21:34:25.959Z,101687.38
2022-10-10T21:37:06.327Z,101687.69
2022-10-10T21:39:52.983Z,101689.50
2022-10-10T21:42:33.367Z,101690.81
2022-10-10T21:45:20.959Z,101691.28
2022-10-10T21:48:08.952Z,101686.88
2022-10-10T21:50:49.076Z,101687.69
2022-10-10T21:53:35.919Z,101692.44
2022-10-10T21:56:23.909Z,101689.81
2022-10-10T21:59:18.930Z,101682.47
2022-10-10T22:02:05.909Z,101679.88
2022-10-10T22:04:52.912Z,101678.50
2022-10-10T22:07:39.915Z,101672.66
2022-10-10T22:10:31.919Z,101669.88
2022-10-10T22:13:12.303Z,101664.78
2022-10-10T22:15:58.931Z,101656.13
2022-10-10T22:18:40.353Z,101662.63
2022-10-10T22:21:30.753Z,101663.00
2022-10-10T22:24:11.338Z,101666.09
2022-10-10T22:26:57.891Z,101658.72
2022-10-10T22:29:44.859Z,101655.25
2022-10-10T22:32:31.865Z,101655.78
2022-10-10T22:35:12.245Z,101655.25
2022-10-10T22:37:58.875Z,101661.16
2022-10-10T22:40:39.221Z,101664.34
2022-10-10T22:43:27.131Z,101660.41
2022-10-10T22:46:08.164Z,101656.81
2022-10-10T22:48:54.864Z,101652.03
2022-10-10T22:51:41.873Z,101656.25
2022-10-10T22:54:28.880Z,101653.31
2022-10-10T22:57:09.254Z,101660.09
2022-10-10T22:59:55.881Z,101655.53
2022-10-10T23:02:42.872Z,101665.28
2022-10-10T23:05:22.967Z,101665.56
2022-10-10T23:08:09.882Z,101664.75
2022-10-10T23:10:49.968Z,101653.91
2022-10-10T23:13:37.815Z,101654.38
2022-10-10T23:16:24.834Z,101646.34
2022-10-10T23:19:05.230Z,101653.94
2022-10-10T23:21:51.827Z,101650.91
2022-10-10T23:24:38.892Z,101643.41
2022-10-10T23:27:25.854Z,101642.56
2022-10-10T23:30:12.800Z,101638.19
2022-10-10T23:32:59.816Z,101650.50
2022-10-10T23:35:46.768Z,101646.03
2022-10-10T23:38:33.811Z,101638.84
2022-10-10T23:41:15.881Z,101632.47
2022-10-10T23:44:02.807Z,101636.69
2022-10-10T23:46:42.917Z,101627.34
2022-10-10T23:49:29.790Z,101623.63
2022-10-10T23:52:16.782Z,101625.41
2022-10-10T23:55:03.784Z,101620.44
2022-10-10T23:57:50.805Z,101623.34
